Time;durP1;ratioP1;P1;durP2;ratioP2;P2;SDS_P1;SDS_P2;PMS_P1;PMS_P2;Temp;Humidity;BMP_temperature;BMP_pressure;BME280_temperature;BME280_humidity;BME280_pressure;Samples;Min_cycle;Max_cycle;Signal;HPM_P1;HPM_P2
2022/07/30 00:01:16;;;;;;;12.90;4.30;;;;;;;20.84;59.08;101699.31;4977640;28;20077;-87
2022/07/30 00:03:42;;;;;;;11.73;4.43;;;;;;;20.78;59.05;101688.69;4978122;28;20042;-87
2022/07/30 00:06:07;;;;;;;12.32;4.72;;;;;;;20.68;59.21;101691.50;4977119;28;20035;-88
2022/07/30 00:08:32;;;;;;;11.95;4.47;;;;;;;20.69;59.49;101697.81;4943335;28;20436;-87
2022/07/30 00:10:58;;;;;;;12.85;4.47;;;;;;;20.66;59.80;101692.47;4977642;28;20027;-87
2022/07/30 00:13:23;;;;;;;12.07;4.47;;;;;;;20.62;60.33;101694.31;4959292;28;20031;-87
2022/07/30 00:15:49;;;;;;;11.45;4.80;;;;;;;20.60;60.15;101696.16;4959948;28;20090;-88
2022/07/30 00:18:14;;;;;;;11.00;4.57;;;;;;;20.60;60.24;101704.22;4976445;28;20035;-87
2022/07/30 00:20:40;;;;;;;12.75;4.78;;;;;;;20.47;60.82;101691.84;4976582;28;20444;-88
2022/07/30 00:23:05;;;;;;;12.75;5.15;;;;;;;20.46;60.94;101682.03;4976877;28;20130;-87
2022/07/30 00:25:31;;;;;;;15.52;5.07;;;;;;;20.39;61.49;101683.94;4977946;28;20035;-87
2022/07/30 00:27:56;;;;;;;10.68;5.25;;;;;;;20.35;61.60;101686.72;4977991;28;20035;-87
2022/07/30 00:30:22;;;;;;;13.05;5.28;;;;;;;20.25;61.81;101673.41;4976707;28;20027;-87
2022/07/30 00:32:47;;;;;;;14.63;5.00;;;;;;;20.17;62.69;101685.19;4976442;28;20039;-88
2022/07/30 00:35:13;;;;;;;11.15;5.30;;;;;;;20.20;62.48;101677.97;4975512;28;20125;-87
2022/07/30 00:37:39;;;;;;;10.35;5.00;;;;;;;20.21;62.81;101686.91;4975290;28;20023;-87
2022/07/30 00:40:06;;;;;;;14.25;5.45;;;;;;;20.18;62.50;101690.53;4975191;28;20154;-87
2022/07/30 00:42:50;;;;;;;15.68;5.60;;;;;;;20.26;61.23;101680.56;4975792;28;20030;-87
2022/07/30 00:45:16;;;;;;;12.23;5.50;;;;;;;20.24;62.42;101685.06;4976710;28;20039;-87
2022/07/30 00:47:42;;;;;;;11.43;5.88;;;;;;;20.05;63.68;101685.41;4975272;28;20026;-87
2022/07/30 00:50:10;;;;;;;18.38;6.40;;;;;;;20.03;63.25;101690.75;4974996;28;20085;-87
2022/07/30 00:52:37;;;;;;;12.43;6.20;;;;;;;19.96;63.73;101675.69;4975651;28;20082;-87
2022/07/30 00:55:03;;;;;;;12.48;6.15;;;;;;;19.92;64.15;101685.56;4976222;28;20375;-87
2022/07/30 00:57:29;;;;;;;13.80;6.28;;;;;;;19.87;64.15;101682.06;4976597;28;20035;-87
2022/07/30 00:59:54;;;;;;;17.80;6.35;;;;;;;19.86;63.70;101680.28;4976297;28;20183;-87
2022/07/30 01:02:20;;;;;;;13.20;6.47;;;;;;;19.81;64.01;101679.47;4974958;28;20432;-87
2022/07/30 01:04:46;;;;;;;12.05;5.35;;;;;;;19.80;64.03;101688.41;4974469;28;20031;-87
2022/07/30 01:07:11;;;;;;;15.00;6.85;;;;;;;19.69;64.86;101687.66;4976090;28;20491;-87
2022/07/30 01:09:38;;;;;;;14.88;6.40;;;;;;;19.62;65.45;101686.88;4974949;28;20123;-87
2022/07/30 01:12:05;;;;;;;11.23;6.70;;;;;;;19.56;65.92;101686.91;4976154;28;20030;-87
2022/07/30 01:14:32;;;;;;;14.73;6.50;;;;;;;19.57;66.01;101680.66;4974546;28;20022;-87
2022/07/30 01:16:58;;;;;;;11.20;6.07;;;;;;;19.62;65.70;101681.53;4942884;28;20084;-87
2022/07/30 01:22:25;;;;;;;11.43;6.45;;;;;;;19.71;65.34;101678.72;4975731;28;20438;-87
2022/07/30 01:25:02;;;;;;;19.33;7.65;;;;;;;19.64;64.76;101674.31;4975779;28;20031;-87
2022/07/30 01:28:03;;;;;;;14.75;7.30;;;;;;;19.51;65.81;101673.56;4976347;28;20038;-87
2022/07/30 01:30:31;;;;;;;14.55;6.93;;;;;;;19.42;66.76;101672.81;4971485;28;20460;-87
2022/07/30 01:32:58;;;;;;;12.73;7.05;;;;;;;19.45;65.92;101670.97;4975783;28;20471;-87
2022/07/30 01:35:26;;;;;;;12.00;7.10;;;;;;;19.39;66.27;101678.19;4974582;28;20448;-87
2022/07/30 01:37:54;;;;;;;17.48;7.18;;;;;;;19.44;66.10;101685.28;4975747;28;20070;-87
2022/07/30 01:40:21;;;;;;;14.65;7.55;;;;;;;19.43;66.34;101677.25;4974487;28;20456;-87
2022/07/30 01:42:53;;;;;;;14.20;7.63;;;;;;;19.30;66.44;101676.53;4975668;28;20066;-87
2022/07/30 01:45:21;;;;;;;13.90;6.82;;;;;;;19.34;66.35;101677.38;4977178;28;20102;-87
2022/07/30 01:47:48;;;;;;;13.18;7.70;;;;;;;19.26;66.12;101678.34;4978054;28;20038;-87
2022/07/30 01:50:14;;;;;;;18.42;7.38;;;;;;;19.12;66.50;101672.25;4979503;28;20038;-87
2022/07/30 01:52:44;;;;;;;14.75;7.70;;;;;;;19.08;66.97;101675.00;4978903;28;20494;-87
2022/07/30 01:55:26;;;;;;;13.95;7.45;;;;;;;19.04;67.10;101678.63;4979869;28;20069;-87
2022/07/30 01:57:54;;;;;;;18.13;8.13;;;;;;;19.04;67.32;101681.28;4981083;28;20023;-87
2022/07/30 02:00:21;;;;;;;12.77;7.78;;;;;;;19.00;67.42;101680.44;4979595;28;20022;-87
2022/07/30 02:02:46;;;;;;;16.38;8.60;;;;;;;18.94;68.24;101685.88;4978941;28;20110;-87
2022/07/30 02:05:12;;;;;;;15.48;7.90;;;;;;;18.93;67.82;101681.44;4962147;28;20554;-87
2022/07/30 02:07:44;;;;;;;17.10;8.48;;;;;;;18.76;68.27;101686.94;4978949;28;20118;-87
2022/07/30 02:10:14;;;;;;;14.30;8.00;;;;;;;18.74;68.28;101686.94;4978966;28;20518;-87
2022/07/30 02:12:50;;;;;;;14.30;8.00;;;;;;;18.72;68.13;101694.13;4978871;28;20035;-87
2022/07/30 02:15:29;;;;;;;17.25;7.93;;;;;;;18.71;68.04;101692.34;4978246;28;20038;-83
2022/07/30 02:18:14;;;;;;;17.30;8.80;;;;;;;18.75;67.81;101693.19;4976589;28;20023;-83
2022/07/30 02:20:44;;;;;;;15.07;8.38;;;;;;;18.82;68.41;101692.22;4977385;28;20077;-85
2022/07/30 02:23:11;;;;;;;12.70;8.45;;;;;;;18.69;68.68;101685.19;4977830;28;20078;-85
2022/07/30 02:25:42;;;;;;;14.35;8.45;;;;;;;18.67;69.14;101685.22;4977686;28;20546;-85
2022/07/30 02:28:11;;;;;;;15.00;8.55;;;;;;;18.67;68.91;101687.88;4977520;28;20023;-85
2022/07/30 02:30:45;;;;;;;17.55;8.55;;;;;;;18.58;69.03;101674.56;4977865;28;20124;-86
2022/07/30 02:33:12;;;;;;;15.30;9.18;;;;;;;18.56;69.14;101681.72;4977421;28;20058;-85
2022/07/30 02:35:39;;;;;;;15.93;8.75;;;;;;;18.63;68.46;101688.81;4977029;28;20046;-85
2022/07/30 02:38:07;;;;;;;13.15;8.95;;;;;;;18.62;68.52;101692.38;4976260;28;20026;-85
2022/07/30 02:40:34;;;;;;;14.82;8.88;;;;;;;18.57;68.97;101687.97;4976985;28;20486;-83
2022/07/30 02:43:00;;;;;;;13.60;8.80;;;;;;;18.60;68.63;101687.94;4976848;28;20113;-83
2022/07/30 02:45:26;;;;;;;16.50;9.32;;;;;;;18.66;68.38;101691.44;4977395;28;20118;-83
2022/07/30 02:48:02;;;;;;;16.00;8.98;;;;;;;18.59;68.25;101686.19;4976804;28;20122;-85
2022/07/30 02:50:28;;;;;;;11.38;8.95;;;;;;;18.55;68.66;101692.47;4977318;28;20027;-85
2022/07/30 02:52:56;;;;;;;14.30;8.73;;;;;;;18.49;68.40;101686.22;4975771;28;20122;-85
2022/07/30 02:55:23;;;;;;;13.43;9.30;;;;;;;18.45;68.40;101678.25;4976936;28;20498;-85
2022/07/30 02:57:52;;;;;;;11.82;8.90;;;;;;;18.36;68.98;101686.34;4975503;28;20093;-85
2022/07/30 03:00:17;;;;;;;15.45;9.05;;;;;;;18.19;68.96;101670.44;4976866;28;20037;-85
2022/07/30 03:02:44;;;;;;;14.07;9.43;;;;;;;18.11;69.28;101691.00;4976834;28;20110;-85
2022/07/30 03:05:10;;;;;;;13.88;9.13;;;;;;;18.12;69.39;101706.16;4976731;28;20424;-85
2022/07/30 03:07:37;;;;;;;15.40;9.00;;;;;;;18.10;69.22;101703.47;4975491;28;20379;-86
2022/07/30 03:10:05;;;;;;;12.57;9.07;;;;;;;17.97;69.70;101715.16;4976572;28;20117;-86
2022/07/30 03:12:33;;;;;;;13.98;9.20;;;;;;;17.98;69.56;101712.47;4976562;28;20158;-85
2022/07/30 03:14:59;;;;;;;16.75;9.45;;;;;;;17.84;69.19;101690.28;4976537;28;20027;-85
2022/07/30 03:17:27;;;;;;;14.95;9.27;;;;;;;17.98;69.41;101708.91;4976587;28;20037;-85
2022/07/30 03:19:55;;;;;;;14.48;9.38;;;;;;;17.88;69.64;101702.72;4975492;28;20041;-85
2022/07/30 03:22:24;;;;;;;17.48;10.05;;;;;;;17.88;70.18;101712.53;4976707;28;20114;-85
2022/07/30 03:24:51;;;;;;;16.63;10.43;;;;;;;17.76;70.25;101703.69;4976094;28;20117;-85
2022/07/30 03:27:17;;;;;;;15.35;9.52;;;;;;;17.77;70.31;101710.81;4977074;28;20329;-85
2022/07/30 03:29:44;;;;;;;15.98;9.32;;;;;;;17.74;69.99;101704.59;4975019;28;20078;-85
2022/07/30 03:32:11;;;;;;;18.13;10.30;;;;;;;17.72;70.12;101706.34;4976289;28;20089;-85
2022/07/30 03:34:36;;;;;;;17.27;9.80;;;;;;;17.63;70.54;101699.25;4976548;28;20035;-85
2022/07/30 03:37:04;;;;;;;14.90;10.10;;;;;;;17.66;70.04;101706.38;4975154;28;20110;-85
2022/07/30 03:39:32;;;;;;;17.35;10.32;;;;;;;17.53;70.48;101701.09;4974857;28;20026;-85
2022/07/30 03:41:58;;;;;;;17.27;10.88;;;;;;;17.58;70.86;101714.44;4976014;28;20418;-85
2022/07/30 03:44:24;;;;;;;15.60;10.07;;;;;;;17.49;70.84;101704.66;4976059;28;20114;-85
2022/07/30 03:46:51;;;;;;;17.10;10.65;;;;;;;17.34;71.39;101698.47;4976194;28;20506;-85
2022/07/30 03:49:17;;;;;;;14.93;10.30;;;;;;;17.34;71.26;101703.81;4977503;28;20062;-85
2022/07/30 03:51:43;;;;;;;17.85;10.52;;;;;;;17.45;70.67;101718.06;4976267;28;20442;-85
2022/07/30 03:54:10;;;;;;;16.30;10.38;;;;;;;17.40;70.99;101718.06;4976716;28;20386;-84
2022/07/30 03:56:36;;;;;;;15.10;10.20;;;;;;;17.41;70.24;101721.63;4976056;28;20468;-85
2022/07/30 03:59:03;;;;;;;17.35;10.18;;;;;;;17.32;70.05;101727.88;4975742;28;20080;-85
2022/07/30 04:01:29;;;;;;;13.77;9.90;;;;;;;17.23;70.58;101717.22;4974622;28;20031;-85
2022/07/30 04:03:54;;;;;;;16.98;10.35;;;;;;;17.23;70.47;101725.25;4975943;28;20108;-85
2022/07/30 04:06:20;;;;;;;14.65;10.27;;;;;;;17.19;70.81;101728.81;4958468;28;20026;-85
2022/07/30 04:08:45;;;;;;;14.25;10.63;;;;;;;17.14;70.83;101726.16;4958399;28;20502;-85
2022/07/30 04:11:11;;;;;;;16.02;11.15;;;;;;;17.17;71.01;101722.56;4975030;28;20049;-85
2022/07/30 04:13:36;;;;;;;17.25;10.68;;;;;;;17.21;70.93;101727.00;4974065;28;20042;-85
2022/07/30 04:16:19;;;;;;;21.65;11.73;;;;;;;17.28;70.69;101728.78;4976005;28;20042;-85
2022/07/30 04:18:49;;;;;;;17.58;11.00;;;;;;;17.21;70.35;101722.56;4974800;28;20033;-85
2022/07/30 04:21:16;;;;;;;15.57;10.95;;;;;;;17.27;70.95;101741.25;4974175;28;20459;-85
2022/07/30 04:23:43;;;;;;;15.13;11.07;;;;;;;17.24;70.77;101740.38;4975097;28;20473;-85
2022/07/30 04:26:09;;;;;;;17.00;10.40;;;;;;;17.16;70.71;101735.03;4974121;28;20467;-85
2022/07/30 04:28:35;;;;;;;15.07;11.40;;;;;;;17.17;70.80;101735.94;4975311;28;20031;-85
2022/07/30 04:31:02;;;;;;;19.38;11.13;;;;;;;17.11;71.07;101735.94;4975027;28;20463;-85
2022/07/30 04:33:28;;;;;;;16.00;10.95;;;;;;;17.17;71.05;101744.84;4973898;28;20545;-85
2022/07/30 04:35:54;;;;;;;21.38;12.13;;;;;;;17.08;71.88;101742.19;4974967;28;20030;-85
2022/07/30 04:38:19;;;;;;;14.63;11.15;;;;;;;17.21;71.79;101753.72;4975196;28;20446;-85
2022/07/30 04:40:45;;;;;;;13.90;11.18;;;;;;;17.14;71.98;101744.84;4975189;28;20034;-85
2022/07/30 04:43:10;;;;;;;14.95;11.70;;;;;;;17.16;72.13;101751.06;4973503;28;20026;-85
2022/07/30 04:45:38;;;;;;;18.83;11.98;;;;;;;17.22;72.21;101763.53;4973813;28;20035;-85
2022/07/30 04:48:04;;;;;;;16.60;11.55;;;;;;;17.26;72.08;101770.66;4974717;28;20065;-85
2022/07/30 04:50:32;;;;;;;15.77;11.77;;;;;;;17.20;72.58;101762.63;4974157;28;20062;-85
2022/07/30 04:52:59;;;;;;;18.65;11.85;;;;;;;17.21;72.59;101762.63;4973435;28;20446;-85
2022/07/30 04:55:25;;;;;;;16.30;12.07;;;;;;;17.26;72.66;101765.31;4975216;28;20031;-85
2022/07/30 04:57:52;;;;;;;15.75;11.38;;;;;;;17.31;72.74;101759.97;4974979;28;20027;-85
2022/07/30 05:00:18;;;;;;;15.10;10.32;;;;;;;17.46;72.27;101771.47;4975194;28;20471;-85
2022/07/30 05:02:45;;;;;;;18.85;11.80;;;;;;;17.38;72.54;101757.25;4974838;28;20027;-84
2022/07/30 05:05:13;;;;;;;16.65;11.35;;;;;;;17.52;72.29;101768.81;4975156;28;20043;-85
2022/07/30 05:07:38;;;;;;;17.20;11.40;;;;;;;17.65;72.73;101784.81;4974583;28;20065;-86
2022/07/30 05:10:05;;;;;;;15.55;10.80;;;;;;;17.62;72.89;101780.34;4973555;28;20023;-83
2022/07/30 05:12:32;;;;;;;14.10;10.25;;;;;;;17.70;72.63;101783.88;4957290;28;20103;-86
2022/07/30 05:14:58;;;;;;;16.20;10.80;;;;;;;17.84;72.44;101782.97;4974809;28;20030;-87
2022/07/30 05:17:23;;;;;;;15.70;11.00;;;;;;;17.87;72.39;101770.47;4973655;28;20069;-87
2022/07/30 05:19:48;;;;;;;17.60;11.55;;;;;;;17.98;72.22;101773.97;4973582;28;20031;-85
2022/07/30 05:22:14;;;;;;;16.08;10.85;;;;;;;18.02;72.37;101781.09;4975338;28;20049;-84
2022/07/30 05:24:39;;;;;;;16.75;10.82;;;;;;;18.09;72.52;101773.06;4961268;28;20117;-84
2022/07/30 05:27:05;;;;;;;17.73;10.85;;;;;;;18.15;72.41;101783.69;4978469;28;20034;-84
2022/07/30 05:29:30;;;;;;;18.15;11.73;;;;;;;18.22;72.32;101769.41;4977190;28;20374;-84
2022/07/30 05:31:56;;;;;;;17.55;11.05;;;;;;;18.44;71.80;101788.88;4977357;28;20031;-82
2022/07/30 05:34:21;;;;;;;22.83;10.98;;;;;;;18.55;71.92;101775.44;4978162;28;20475;-86
2022/07/30 05:36:46;;;;;;;16.60;10.93;;;;;;;18.70;71.21;101783.38;4981163;28;20038;-83
2022/07/30 05:39:12;;;;;;;17.83;10.05;;;;;;;18.85;70.62;101785.06;4978653;28;20030;-83
2022/07/30 05:41:38;;;;;;;14.75;10.50;;;;;;;18.94;70.83;101782.28;4978453;28;20030;-83
2022/07/30 05:44:03;;;;;;;18.10;9.73;;;;;;;19.01;70.00;101782.22;4978892;28;20085;-83
2022/07/30 05:46:30;;;;;;;15.32;10.23;;;;;;;19.05;70.20;101783.06;4978412;28;20081;-83
2022/07/30 05:48:55;;;;;;;17.80;9.40;;;;;;;19.20;69.42;101793.66;4978208;28;20498;-83
2022/07/30 05:51:21;;;;;;;15.73;9.45;;;;;;;19.19;70.29;101781.16;4978268;28;20117;-83
2022/07/30 05:53:47;;;;;;;16.25;9.32;;;;;;;19.43;69.32;101798.75;4978523;28;20054;-83
2022/07/30 05:56:13;;;;;;;16.45;9.23;;;;;;;19.58;69.05;101791.47;4977105;28;20030;-83
2022/07/30 05:58:38;;;;;;;14.38;9.82;;;;;;;19.67;68.67;101799.44;4978385;28;20038;-83
2022/07/30 06:01:04;;;;;;;17.00;9.40;;;;;;;19.88;67.71;101800.97;4977888;28;20110;-83
2022/07/30 06:03:29;;;;;;;18.08;9.38;;;;;;;19.98;68.04;101789.22;4978546;28;20432;-83
2022/07/30 06:05:54;;;;;;;20.50;9.50;;;;;;;19.98;67.35;101800.81;4977936;28;20037;-84
2022/07/30 06:08:20;;;;;;;18.23;9.35;;;;;;;20.22;66.66;101796.94;4978186;28;20038;-84
2022/07/30 06:10:45;;;;;;;17.50;8.93;;;;;;;20.30;66.06;101801.28;4960846;28;20042;-84
2022/07/30 06:13:11;;;;;;;15.07;8.43;;;;;;;20.47;66.28;101810.91;4976685;28;20426;-84
2022/07/30 06:15:36;;;;;;;17.10;8.52;;;;;;;20.53;65.74;101806.38;4961201;28;20039;-84
2022/07/30 06:18:01;;;;;;;13.98;8.30;;;;;;;20.67;65.26;101809.72;4977436;28;20109;-84
2022/07/30 06:20:27;;;;;;;11.90;7.88;;;;;;;20.73;65.25;101806.97;4977758;28;20414;-84
2022/07/30 06:22:52;;;;;;;16.65;7.97;;;;;;;20.91;63.92;101813.84;4977783;28;20027;-84
2022/07/30 06:25:17;;;;;;;16.38;7.28;;;;;;;21.04;62.97;101806.44;4976405;28;20027;-84
2022/07/30 06:27:43;;;;;;;12.82;7.18;;;;;;;21.06;63.00;101813.56;4960113;28;20375;-84
2022/07/30 06:30:10;;;;;;;11.32;6.80;;;;;;;21.25;62.56;101816.81;4977094;28;20110;-84
2022/07/30 06:32:36;;;;;;;13.32;7.35;;;;;;;21.17;62.07;101799.94;4977848;28;20045;-84
2022/07/30 06:35:02;;;;;;;14.80;7.15;;;;;;;21.30;62.44;101819.44;4976675;28;20027;-82
2022/07/30 06:37:28;;;;;;;13.70;7.20;;;;;;;21.56;61.40;101825.22;4977321;28;20053;-82
2022/07/30 06:39:53;;;;;;;12.98;6.40;;;;;;;21.66;61.17;101810.66;4977342;28;20515;-84
2022/07/30 06:42:19;;;;;;;12.00;6.03;;;;;;;21.77;60.83;101814.97;4977495;28;20027;-84
2022/07/30 06:44:45;;;;;;;9.63;5.93;;;;;;;21.85;60.00;101813.91;4975966;28;20090;-84
2022/07/30 06:47:10;;;;;;;12.02;6.00;;;;;;;21.97;59.74;101824.41;4977184;28;20031;-84
2022/07/30 06:49:36;;;;;;;10.48;5.50;;;;;;;21.79;59.60;101818.50;4977027;28;20054;-84
2022/07/30 06:52:03;;;;;;;13.38;5.10;;;;;;;21.71;59.67;101821.34;4976610;28;20411;-84
2022/07/30 06:54:28;;;;;;;11.88;4.68;;;;;;;21.92;58.87;101823.59;4977136;28;20046;-84
2022/07/30 06:56:54;;;;;;;10.98;4.30;;;;;;;22.18;58.26;101825.78;4976931;28;20562;-84
2022/07/30 06:59:19;;;;;;;10.98;4.10;;;;;;;22.31;57.80;101809.34;4976884;28;20039;-84
2022/07/30 07:01:44;;;;;;;12.63;3.90;;;;;;;22.49;57.39;101815.22;4977093;28;20029;-84
2022/07/30 07:04:10;;;;;;;6.88;3.53;;;;;;;22.69;55.75;101821.91;4975449;28;20357;-84
2022/07/30 07:06:36;;;;;;;10.20;3.40;;;;;;;22.84;55.31;101823.38;4977010;28;20031;-84
2022/07/30 07:09:02;;;;;;;8.15;3.40;;;;;;;23.07;54.17;101820.13;4975581;28;20041;-84
2022/07/30 07:11:28;;;;;;;8.77;3.28;;;;;;;23.17;54.38;101814.47;4975436;28;20035;-82
2022/07/30 07:13:53;;;;;;;9.23;3.60;;;;;;;23.39;54.07;101833.66;4975655;28;20034;-82
2022/07/30 07:16:21;;;;;;;8.75;3.53;;;;;;;23.34;53.96;101826.59;4976585;28;20081;-82
2022/07/30 07:18:47;;;;;;;8.55;3.80;;;;;;;23.55;53.30;101825.13;4975617;28;20412;-82
2022/07/30 07:21:14;;;;;;;10.25;3.55;;;;;;;23.85;51.35;101826.09;4976405;28;20092;-85
2022/07/30 07:23:39;;;;;;;10.25;3.40;;;;;;;24.08;50.50;101809.25;4976747;28;20084;-85
2022/07/30 07:26:05;;;;;;;9.50;3.80;;;;;;;24.20;49.92;101823.28;4976167;28;20129;-83
2022/07/30 07:28:30;;;;;;;9.60;3.70;;;;;;;23.96;49.48;101824.88;4976282;28;20031;-82
2022/07/30 07:30:55;;;;;;;6.72;3.38;;;;;;;23.74;50.32;101821.91;4975178;28;20034;-82
2022/07/30 07:33:21;;;;;;;8.57;3.55;;;;;;;23.58;50.41;101831.31;4975074;28;20041;-82
2022/07/30 07:35:46;;;;;;;8.82;3.80;;;;;;;23.31;51.97;101835.66;4976282;28;20042;-85
2022/07/30 07:38:12;;;;;;;10.77;3.38;;;;;;;23.27;52.02;101830.41;4974960;28;20530;-82
2022/07/30 07:40:37;;;;;;;8.18;3.58;;;;;;;23.24;51.80;101834.03;4974659;28;20045;-84
2022/07/30 07:43:04;;;;;;;10.77;3.30;;;;;;;23.33;51.89;101832.91;4976056;28;20026;-85
2022/07/30 07:45:29;;;;;;;11.00;3.35;;;;;;;23.65;50.75;101829.41;4975909;28;20031;-82
2022/07/30 07:47:55;;;;;;;8.75;3.25;;;;;;;24.00;49.37;101833.78;4975977;28;20470;-83
2022/07/30 07:50:20;;;;;;;6.85;3.30;;;;;;;24.32;48.74;101840.00;4975900;28;20133;-83
2022/07/30 07:52:45;;;;;;;11.10;3.50;;;;;;;24.62;47.62;101820.16;4975238;28;20444;-82
2022/07/30 07:55:11;;;;;;;8.75;3.00;;;;;;;24.88;46.40;101831.94;4976043;28;20359;-83
2022/07/30 07:57:44;;;;;;;7.88;3.03;;;;;;;25.02;46.81;101826.97;4974110;28;20031;-83
2022/07/30 08:00:13;;;;;;;6.05;2.88;;;;;;;25.12;46.58;101824.88;4975677;28;20085;-83
2022/07/30 08:02:39;;;;;;;7.53;3.20;;;;;;;25.45;45.83;101820.09;4975509;28;20026;-83
2022/07/30 08:05:06;;;;;;;9.95;3.15;;;;;;;25.66;45.29;101821.16;4975839;28;20146;-83
2022/07/30 08:07:32;;;;;;;8.40;3.22;;;;;;;25.33;45.15;101818.72;4975124;28;20138;-83
2022/07/30 08:09:58;;;;;;;7.15;2.67;;;;;;;25.21;45.13;101819.13;4975590;28;20106;-83
2022/07/30 08:12:23;;;;;;;5.70;2.80;;;;;;;25.32;44.86;101825.06;4974284;28;20471;-83
2022/07/30 08:14:49;;;;;;;6.50;3.05;;;;;;;25.26;44.23;101822.56;4975714;28;20041;-83
2022/07/30 08:17:14;;;;;;;5.00;2.60;;;;;;;25.50;44.39;101825.34;4975265;28;20443;-82
2022/07/30 08:19:40;;;;;;;6.60;3.20;;;;;;;25.60;44.06;101824.06;4958137;28;20470;-83
2022/07/30 08:22:06;;;;;;;10.00;3.00;;;;;;;25.40;44.30;101822.97;4975253;28;20033;-83
2022/07/30 08:24:31;;;;;;;6.90;2.50;;;;;;;25.45;43.24;101814.69;4975380;28;20042;-83
2022/07/30 08:26:57;;;;;;;5.95;2.63;;;;;;;25.80;43.30;101826.09;4975317;28;20558;-83
2022/07/30 08:29:22;;;;;;;4.82;2.45;;;;;;;25.98;42.32;101823.56;4975252;28;20039;-83
2022/07/30 08:31:47;;;;;;;7.68;2.50;;;;;;;26.41;40.63;101830.00;4975253;28;20093;-83
2022/07/30 08:34:13;;;;;;;8.77;2.78;;;;;;;26.49;40.81;101826.16;4973413;28;20053;-83
2022/07/30 08:36:38;;;;;;;9.88;2.72;;;;;;;26.93;39.34;101821.59;4974239;28;20460;-83
2022/07/30 08:39:04;;;;;;;7.70;2.80;;;;;;;27.11;38.82;101818.16;4973748;28;20026;-83
2022/07/30 08:41:30;;;;;;;5.55;2.42;;;;;;;27.15;39.10;101827.03;4975098;28;20022;-83
2022/07/30 08:43:59;;;;;;;4.93;2.50;;;;;;;27.23;38.38;101816.75;4975098;28;20498;-83
2022/07/30 08:46:28;;;;;;;5.45;2.50;;;;;;;27.14;38.16;101812.59;4973505;28;20035;-83
2022/07/30 08:48:53;;;;;;;6.90;2.63;;;;;;;27.19;38.55;101825.97;4973864;28;20027;-83
2022/07/30 08:51:21;;;;;;;5.60;2.70;;;;;;;27.36;37.68;101823.38;4973915;28;20115;-83
2022/07/30 08:53:47;;;;;;;5.13;2.42;;;;;;;27.40;37.11;101827.72;4973488;28;20053;-83
2022/07/30 08:56:13;;;;;;;5.05;2.50;;;;;;;27.63;36.37;101824.03;4975482;28;20053;-83
2022/07/30 08:58:38;;;;;;;8.10;2.70;;;;;;;27.81;35.52;101829.59;4974592;28;20031;-83
2022/07/30 09:01:05;;;;;;;5.72;2.72;;;;;;;27.79;35.72;101828.75;4974874;28;20081;-83
2022/07/30 09:03:31;;;;;;;4.55;2.33;;;;;;;27.81;36.27;101825.03;4974863;28;20039;-83
2022/07/30 09:05:57;;;;;;;6.85;2.50;;;;;;;27.91;36.29;101828.22;4973573;28;20027;-83
2022/07/30 09:08:22;;;;;;;8.05;2.70;;;;;;;28.12;35.43;101816.34;4973603;28;20486;-83
2022/07/30 09:10:48;;;;;;;6.05;2.40;;;;;;;28.06;34.31;101807.59;4957721;28;20050;-83
2022/07/30 09:13:25;;;;;;;8.60;2.53;;;;;;;28.31;33.84;101820.88;4975120;28;20486;-83
2022/07/30 09:15:50;;;;;;;6.22;2.70;;;;;;;28.33;33.49;101813.56;4974690;28;20027;-83
2022/07/30 09:18:32;;;;;;;10.00;2.40;;;;;;;28.84;34.30;101828.31;4974762;28;20121;-83
2022/07/30 09:20:59;;;;;;;6.60;2.47;;;;;;;29.10;32.71;101830.59;4974832;28;20038;-83
2022/07/30 09:23:24;;;;;;;5.75;2.42;;;;;;;29.13;32.78;101822.28;4973420;28;20023;-83
2022/07/30 09:25:50;;;;;;;6.57;2.40;;;;;;;29.36;32.62;101815.63;4973437;28;20082;-83
2022/07/30 09:28:26;;;;;;;5.28;2.20;;;;;;;29.54;33.64;101831.97;4975190;28;20081;-83
2022/07/30 09:30:54;;;;;;;5.30;2.40;;;;;;;29.53;33.21;101839.25;4975004;28;20039;-83
2022/07/30 09:33:36;;;;;;;7.78;2.30;;;;;;;29.92;32.97;101844.44;4974595;28;20043;-83
2022/07/30 09:36:03;;;;;;;5.32;2.30;;;;;;;29.80;31.33;101845.09;4973260;28;20110;-83
2022/07/30 09:38:28;;;;;;;6.07;2.30;;;;;;;29.75;32.28;101838.13;4973400;28;20031;-83
2022/07/30 09:40:55;;;;;;;6.32;2.38;;;;;;;30.05;29.87;101841.03;4973236;28;20077;-83
2022/07/30 09:43:21;;;;;;;5.05;2.15;;;;;;;29.84;30.82;101837.63;4974629;28;20027;-83
2022/07/30 09:45:51;;;;;;;5.55;2.40;;;;;;;30.30;31.21;101833.28;4973231;28;20033;-83
2022/07/30 09:48:25;;;;;;;8.25;2.58;;;;;;;30.20;31.77;101829.31;4974919;28;20034;-83
2022/07/30 09:50:51;;;;;;;5.75;2.55;;;;;;;29.87;30.56;101832.91;4973162;28;20522;-83
2022/07/30 09:53:18;;;;;;;5.70;2.10;;;;;;;30.07;29.48;101825.50;4974925;28;20133;-83
2022/07/30 09:55:44;;;;;;;7.20;2.20;;;;;;;30.53;29.31;101822.91;4975210;28;20478;-83
2022/07/30 09:58:11;;;;;;;6.32;2.15;;;;;;;30.62;29.24;101828.72;4974625;28;20045;-83
2022/07/30 10:00:37;;;;;;;5.63;2.45;;;;;;;30.98;28.51;101822.09;4975410;28;20035;-83
2022/07/30 10:03:16;;;;;;;5.50;2.13;;;;;;;30.90;28.71;101825.28;4974481;28;20054;-83
2022/07/30 10:05:52;;;;;;;5.88;2.10;;;;;;;30.71;29.83;101816.41;4974510;28;20050;-83
2022/07/30 10:08:18;;;;;;;4.57;2.15;;;;;;;30.93;29.17;101811.47;4974455;28;20062;-83
2022/07/30 10:10:45;;;;;;;7.25;2.40;;;;;;;31.28;28.38;101802.09;4977046;28;20058;-83
2022/07/30 10:13:12;;;;;;;4.30;1.92;;;;;;;31.28;28.38;101810.31;4977609;28;20035;-83
2022/07/30 10:15:38;;;;;;;8.13;2.20;;;;;;;31.25;27.96;101807.75;4978095;28;20110;-83
2022/07/30 10:18:04;;;;;;;5.07;2.08;;;;;;;31.40;27.52;101815.06;4977711;28;20432;-83
2022/07/30 10:20:31;;;;;;;5.45;2.42;;;;;;;31.49;28.28;101806.28;4977920;28;20038;-83
2022/07/30 10:22:57;;;;;;;5.05;2.22;;;;;;;31.63;28.77;101799.94;4977603;28;20061;-83
2022/07/30 10:25:25;;;;;;;6.07;2.30;;;;;;;31.60;27.04;101792.81;4976406;28;20062;-83
2022/07/30 10:27:51;;;;;;;6.22;2.20;;;;;;;31.59;26.77;101802.00;4977757;28;20034;-83
2022/07/30 10:30:17;;;;;;;4.25;2.00;;;;;;;31.83;27.88;101802.34;4977806;28;20129;-83
2022/07/30 10:32:44;;;;;;;4.75;1.90;;;;;;;31.89;27.39;101801.06;4976724;28;20428;-83
2022/07/30 10:35:10;;;;;;;6.45;2.03;;;;;;;32.26;27.22;101804.16;4977340;28;20098;-83
2022/07/30 10:37:40;;;;;;;5.07;2.30;;;;;;;32.23;26.66;101807.97;4976936;28;20382;-83
2022/07/30 10:40:16;;;;;;;5.72;2.13;;;;;;;31.86;28.78;101798.50;4976995;28;20027;-83
2022/07/30 10:43:24;;;;;;;5.07;2.22;;;;;;;31.83;28.23;101812.38;4976682;28;20027;-83
2022/07/30 10:45:58;;;;;;;6.75;2.30;;;;;;;31.22;29.03;101795.19;4965956;28;20043;-83
2022/07/30 10:48:24;;;;;;;3.80;1.98;;;;;;;31.55;28.29;101802.28;4977422;28;20101;-83
2022/07/30 10:50:58;;;;;;;5.20;2.30;;;;;;;31.87;28.39;101805.75;4977123;28;20464;-83
2022/07/30 10:53:34;;;;;;;6.90;2.42;;;;;;;32.39;27.97;101807.88;4975932;28;20105;-83
2022/07/30 10:56:18;;;;;;;5.50;2.10;;;;;;;32.30;27.27;101811.19;4976979;28;20084;-83
2022/07/30 10:58:58;;;;;;;5.03;2.10;;;;;;;32.30;28.03;101812.06;4977499;28;20498;-83
2022/07/30 11:01:23;;;;;;;5.20;2.00;;;;;;;32.25;26.95;101797.81;4975534;28;20073;-83
2022/07/30 11:04:17;;;;;;;4.45;1.92;;;;;;;32.61;27.70;101804.59;4977394;28;20031;-83
2022/07/30 11:06:43;;;;;;;6.63;2.00;;;;;;;32.59;27.39;101795.59;4976933;28;20057;-83
2022/07/30 11:09:45;;;;;;;5.93;2.08;;;;;;;32.97;27.01;101795.75;4976756;28;20119;-83
2022/07/30 11:12:11;;;;;;;4.43;2.00;;;;;;;32.86;26.41;101799.22;4977316;28;20022;-83
2022/07/30 11:14:45;;;;;;;6.80;2.30;;;;;;;32.73;26.76;101802.91;4976338;28;20146;-83
2022/07/30 11:17:18;;;;;;;5.13;2.10;;;;;;;32.86;25.89;101792.88;4976572;28;20034;-83
2022/07/30 11:20:13;;;;;;;4.63;1.98;;;;;;;32.89;26.24;101807.22;4976624;28;20026;-83
2022/07/30 11:22:48;;;;;;;6.05;2.00;;;;;;;32.98;26.84;101794.81;4959909;28;20368;-83
2022/07/30 11:25:33;;;;;;;6.97;2.00;;;;;;;33.01;26.77;101799.19;4976515;28;20470;-83